Archival Weather

Chicago O'Hare International

Chicago, Illinois (KORD)

Report from: Saturday, November 5, 2022 5:33 AM CDT
Current time: Saturday, March 2, 2024 3:17 AM CST

Current weather – Weather history – Daily summaries
Weather forecast

Temperature17.2°C (63.0°F)
Dew point14.4°C (57.9°F)
Winds 18 kts (9.3 m/s, 20.7 mph) South (190°)
Wind gusts 29 kts (14.9 m/s, 33.4 mph)
Peak wind 40 kts (20.6 m/s, 46 mph) South-Southeast (160°) at 10:08
Visibility10 mi. (16.1 km)
Clouds Ceiling: Broken clouds 1,300 ft. (396 m)
Broken clouds 2,100 ft. (640 m)
Overcast 10,000 ft. (3,048 m)
Altimeter29.55 in.Hg (1001 mB)
PrecipitiationTrace
Precip. events Rain ended 10:29 AM
Relative humidity84 %
Density altitude913 ft. (278 m)
Remarks Automated weather observing station with precipitation discriminator
Pressure rising rapidly
Flight conditions Marginal Visual Meteorological Conditions
Raw dataKORD 051033Z 19018G29KT 10SM BKN013 BKN021 OVC100 17/14 A2955 RMK AO2 PK WND 16040/1008 RAE29 PRESRR P0000 T01720144
An error has occurred. This application may no longer respond until reloaded. Reload 🗙